createdAt,value
2022-10-22T00:00:08.284Z,0.00
2022-10-22T00:01:08.282Z,0.00
2022-10-22T00:02:08.276Z,0.00
2022-10-22T00:03:08.301Z,0.00
2022-10-22T00:04:08.233Z,0.00
2022-10-22T00:05:08.233Z,0.00
2022-10-22T00:06:08.201Z,0.00
2022-10-22T00:07:08.211Z,0.00
2022-10-22T00:08:08.184Z,0.00
2022-10-22T00:09:08.235Z,0.00
2022-10-22T00:10:08.167Z,0.00
2022-10-22T00:11:08.167Z,0.00
2022-10-22T00:12:08.195Z,0.00
2022-10-22T00:13:08.158Z,0.00
2022-10-22T00:14:08.128Z,0.00
2022-10-22T00:15:08.125Z,0.00
2022-10-22T00:16:08.132Z,0.00
2022-10-22T00:17:11.207Z,0.00
2022-10-22T00:18:08.109Z,0.00
2022-10-22T00:19:08.098Z,0.00
2022-10-22T00:20:08.056Z,0.00
2022-10-22T00:21:08.049Z,0.00
2022-10-22T00:22:08.079Z,0.00
2022-10-22T00:23:08.038Z,0.00
2022-10-22T00:24:08.011Z,0.00
2022-10-22T00:25:08.011Z,0.00
2022-10-22T00:26:07.986Z,0.00
2022-10-22T00:27:08.007Z,0.00
2022-10-22T00:28:08.033Z,0.00
2022-10-22T00:29:07.977Z,0.00
2022-10-22T00:30:07.969Z,0.00
2022-10-22T00:31:07.960Z,0.00
2022-10-22T00:32:07.962Z,0.00
2022-10-22T00:33:07.923Z,0.00
2022-10-22T00:34:07.929Z,0.00
2022-10-22T00:35:07.921Z,0.00
2022-10-22T00:36:07.954Z,0.00
2022-10-22T00:37:07.913Z,0.00
2022-10-22T00:38:07.916Z,0.00
2022-10-22T00:39:07.858Z,0.00
2022-10-22T00:40:07.875Z,0.00
2022-10-22T00:41:07.850Z,0.00
2022-10-22T00:42:07.833Z,0.00
2022-10-22T00:43:07.841Z,0.00
2022-10-22T00:44:07.800Z,0.00
2022-10-22T00:45:07.780Z,0.00
2022-10-22T00:46:07.785Z,0.00
2022-10-22T00:47:07.754Z,0.00
2022-10-22T00:48:07.779Z,0.00
2022-10-22T00:49:07.752Z,0.00
2022-10-22T00:50:07.730Z,0.00
2022-10-22T00:51:07.715Z,0.00
2022-10-22T00:52:07.716Z,0.00
2022-10-22T00:53:07.710Z,0.00
2022-10-22T00:54:07.701Z,0.00
2022-10-22T00:55:07.672Z,0.00
2022-10-22T00:56:07.663Z,0.00
2022-10-22T00:57:07.653Z,0.00
2022-10-22T00:58:07.727Z,0.00
2022-10-22T01:00:07.617Z,0.00
2022-10-22T01:01:07.646Z,0.00
2022-10-22T01:02:07.614Z,0.00
2022-10-22T01:03:07.591Z,0.00
2022-10-22T01:04:07.674Z,0.00
2022-10-22T01:05:07.565Z,0.00
2022-10-22T01:06:07.590Z,0.00
2022-10-22T01:07:07.537Z,0.00
2022-10-22T01:08:07.569Z,0.00
2022-10-22T01:09:07.573Z,0.00
2022-10-22T01:10:07.548Z,0.00
2022-10-22T01:11:07.513Z,0.00
2022-10-22T01:12:07.486Z,0.00
2022-10-22T01:13:07.478Z,0.00
2022-10-22T01:14:07.466Z,0.00
2022-10-22T01:15:07.497Z,0.00
2022-10-22T01:16:07.447Z,0.00
2022-10-22T01:17:07.493Z,0.00
2022-10-22T01:18:07.422Z,0.00
2022-10-22T01:19:07.399Z,0.00
2022-10-22T01:20:07.459Z,0.00
2022-10-22T01:21:07.375Z,0.00
2022-10-22T01:22:07.366Z,0.00
2022-10-22T01:23:07.417Z,0.00
2022-10-22T01:24:07.374Z,0.00
2022-10-22T01:25:07.360Z,0.00
2022-10-22T01:26:07.330Z,0.00
2022-10-22T01:27:07.362Z,0.00
2022-10-22T01:28:07.321Z,0.00
2022-10-22T01:29:07.311Z,0.00
2022-10-22T01:30:07.315Z,0.00
2022-10-22T01:31:07.272Z,0.00
2022-10-22T01:32:07.291Z,0.00
2022-10-22T01:33:07.254Z,0.00
2022-10-22T01:34:07.303Z,0.00
2022-10-22T01:35:07.245Z,0.00
2022-10-22T01:36:07.234Z,0.00
2022-10-22T01:37:07.377Z,0.00
2022-10-22T01:38:07.224Z,0.00
2022-10-22T01:39:07.210Z,0.00
2022-10-22T01:40:07.174Z,0.00
2022-10-22T01:41:07.193Z,0.00
2022-10-22T01:42:07.146Z,0.00
2022-10-22T01:43:07.182Z,0.00
2022-10-22T01:44:07.161Z,0.00
2022-10-22T01:45:07.126Z,0.00
2022-10-22T01:46:07.117Z,0.00
2022-10-22T01:47:07.097Z,0.00
2022-10-22T01:48:07.144Z,0.00
2022-10-22T01:49:07.093Z,0.00
2022-10-22T01:50:07.090Z,0.00
2022-10-22T01:51:07.063Z,0.00
2022-10-22T01:52:07.046Z,0.00
2022-10-22T01:53:07.107Z,0.00
2022-10-22T01:54:07.061Z,0.00
2022-10-22T01:55:07.020Z,0.00
2022-10-22T01:56:07.023Z,0.00
2022-10-22T01:57:07.055Z,0.00
2022-10-22T01:58:07.031Z,0.00
2022-10-22T01:59:06.971Z,0.00
2022-10-22T02:00:07.047Z,0.00
2022-10-22T02:01:07.077Z,0.00
2022-10-22T02:02:06.972Z,0.00
2022-10-22T02:03:06.979Z,0.00
2022-10-22T02:04:06.998Z,0.00
2022-10-22T02:05:06.979Z,0.00
2022-10-22T02:06:06.897Z,0.00
2022-10-22T02:07:06.902Z,0.00
2022-10-22T02:08:06.917Z,0.00
2022-10-22T02:09:06.972Z,0.00
2022-10-22T02:10:06.882Z,0.00
2022-10-22T02:11:06.881Z,0.00
2022-10-22T02:12:06.854Z,0.00
2022-10-22T02:13:06.823Z,0.00
2022-10-22T02:14:06.846Z,0.00
2022-10-22T02:15:06.819Z,0.00
2022-10-22T02:16:06.780Z,0.00
2022-10-22T02:17:06.780Z,0.00
2022-10-22T02:18:06.770Z,0.00
2022-10-22T02:19:07.366Z,0.00
2022-10-22T02:20:06.768Z,0.00
2022-10-22T02:21:09.780Z,0.00
2022-10-22T02:22:06.770Z,0.00
2022-10-22T02:23:06.691Z,0.00
2022-10-22T02:24:06.863Z,0.00
2022-10-22T02:25:06.743Z,0.00
2022-10-22T02:26:06.668Z,0.00
2022-10-22T02:27:06.686Z,0.00
2022-10-22T02:28:06.651Z,0.00
2022-10-22T02:29:06.696Z,0.00
2022-10-22T02:30:06.692Z,0.00
2022-10-22T02:31:06.727Z,0.00
2022-10-22T02:32:06.632Z,0.00
2022-10-22T02:33:06.626Z,0.00
2022-10-22T02:34:06.630Z,0.00
2022-10-22T02:35:06.595Z,0.00
2022-10-22T02:36:06.613Z,0.00
2022-10-22T02:37:06.557Z,0.00
2022-10-22T02:38:06.533Z,0.00
2022-10-22T02:39:06.608Z,0.00
2022-10-22T02:40:06.582Z,0.00
2022-10-22T02:41:06.594Z,0.00
2022-10-22T02:42:06.573Z,0.00
2022-10-22T02:43:06.581Z,0.00
2022-10-22T02:44:06.520Z,0.00
2022-10-22T02:45:06.557Z,0.00
2022-10-22T02:46:06.470Z,0.00
2022-10-22T02:47:06.476Z,0.00
2022-10-22T02:48:06.499Z,0.00
2022-10-22T02:49:06.428Z,0.00
2022-10-22T02:50:09.438Z,0.00
2022-10-22T02:51:06.465Z,0.00
2022-10-22T02:52:06.426Z,0.00
2022-10-22T02:53:06.430Z,0.00
2022-10-22T02:54:06.380Z,0.00
2022-10-22T02:55:06.387Z,0.00
2022-10-22T02:56:06.412Z,0.00
2022-10-22T02:57:07.433Z,0.00
2022-10-22T02:58:06.344Z,0.00
2022-10-22T02:59:06.330Z,0.00
2022-10-22T03:00:06.315Z,0.00
2022-10-22T03:01:06.381Z,0.00
2022-10-22T03:02:06.303Z,0.00
2022-10-22T03:03:06.303Z,0.00
2022-10-22T03:04:06.255Z,0.00
2022-10-22T03:05:06.241Z,0.00
2022-10-22T03:06:06.298Z,0.00
2022-10-22T03:07:06.253Z,0.00
2022-10-22T03:08:06.263Z,0.00
2022-10-22T03:09:06.298Z,0.00
2022-10-22T03:10:06.251Z,0.00
2022-10-22T03:11:06.325Z,0.00
2022-10-22T03:12:06.262Z,0.00
2022-10-22T03:13:06.155Z,0.00
2022-10-22T03:14:06.233Z,0.00
2022-10-22T03:15:06.175Z,0.00
2022-10-22T03:16:06.219Z,0.00
2022-10-22T03:17:06.175Z,0.00
2022-10-22T03:18:06.144Z,0.00
2022-10-22T03:19:06.096Z,0.00
2022-10-22T03:20:06.177Z,0.00
2022-10-22T03:21:07.141Z,0.00
2022-10-22T03:22:06.126Z,0.00
2022-10-22T03:23:06.057Z,0.00
2022-10-22T03:24:06.057Z,0.00
2022-10-22T03:25:06.025Z,0.00
2022-10-22T03:26:06.025Z,0.00
2022-10-22T03:27:06.091Z,0.00
2022-10-22T03:28:06.022Z,0.00
2022-10-22T03:29:06.016Z,0.00
2022-10-22T03:30:06.002Z,0.00
2022-10-22T03:31:05.982Z,0.00
2022-10-22T03:32:05.967Z,0.00
2022-10-22T03:33:05.966Z,0.00
2022-10-22T03:34:05.936Z,0.00
2022-10-22T03:35:05.951Z,0.00
2022-10-22T03:36:05.968Z,0.00
2022-10-22T03:37:05.992Z,0.00
2022-10-22T03:38:05.973Z,0.00
2022-10-22T03:39:05.898Z,0.00
2022-10-22T03:40:05.893Z,0.00
2022-10-22T03:41:05.871Z,0.00
2022-10-22T03:42:05.893Z,0.00
2022-10-22T03:43:05.889Z,0.00
2022-10-22T03:44:05.841Z,0.00
2022-10-22T03:45:05.821Z,0.00
2022-10-22T03:46:05.827Z,0.00
2022-10-22T03:47:05.792Z,0.00
2022-10-22T03:48:05.772Z,0.00
2022-10-22T03:49:05.896Z,0.00
2022-10-22T03:50:05.791Z,0.00
2022-10-22T03:51:05.782Z,0.00
2022-10-22T03:52:05.773Z,0.00
2022-10-22T03:53:05.709Z,0.00
2022-10-22T03:54:05.805Z,0.00
2022-10-22T03:55:05.719Z,0.00
2022-10-22T03:56:05.753Z,0.00
2022-10-22T03:57:05.710Z,0.00
2022-10-22T03:58:05.684Z,0.00
2022-10-22T03:59:05.724Z,0.00
2022-10-22T04:00:05.665Z,0.00
2022-10-22T04:01:05.744Z,0.00
2022-10-22T04:02:05.639Z,0.00
2022-10-22T04:03:05.613Z,0.00
2022-10-22T04:04:05.705Z,0.00
2022-10-22T04:05:05.669Z,0.00
2022-10-22T04:06:05.613Z,0.00
2022-10-22T04:07:05.627Z,0.00
2022-10-22T04:08:05.611Z,0.00
2022-10-22T04:09:05.631Z,0.00
2022-10-22T04:10:05.568Z,0.00
2022-10-22T04:11:05.549Z,0.00
2022-10-22T04:12:05.518Z,0.00
2022-10-22T04:13:05.526Z,0.00
2022-10-22T04:14:05.622Z,0.00
2022-10-22T04:15:05.485Z,0.00
2022-10-22T04:16:05.497Z,0.00
2022-10-22T04:17:05.487Z,0.00
2022-10-22T04:18:05.488Z,0.00
2022-10-22T04:19:05.505Z,0.00
2022-10-22T04:20:05.436Z,0.00
2022-10-22T04:21:05.504Z,0.00
2022-10-22T04:22:05.444Z,0.00
2022-10-22T04:23:05.398Z,0.00
2022-10-22T04:24:05.485Z,0.00
2022-10-22T04:25:05.373Z,0.00
2022-10-22T04:26:05.361Z,0.00
2022-10-22T04:27:05.361Z,0.00
2022-10-22T04:28:05.370Z,0.00
2022-10-22T04:29:05.448Z,0.00
2022-10-22T04:30:05.340Z,0.00
2022-10-22T04:31:05.299Z,0.00
2022-10-22T04:32:05.384Z,0.00
2022-10-22T04:33:05.310Z,0.00
2022-10-22T04:34:05.313Z,0.00
2022-10-22T04:35:05.276Z,0.00
2022-10-22T04:36:05.285Z,0.00
2022-10-22T04:37:05.289Z,0.00
2022-10-22T04:38:05.305Z,0.00
2022-10-22T04:39:05.311Z,0.00
2022-10-22T04:40:05.258Z,0.00
2022-10-22T04:41:05.226Z,0.00
2022-10-22T04:42:05.213Z,0.00
2022-10-22T04:43:05.210Z,0.00
2022-10-22T04:44:05.257Z,0.00
2022-10-22T04:45:05.164Z,0.00
2022-10-22T04:46:05.143Z,0.00
2022-10-22T04:47:05.195Z,0.00
2022-10-22T04:48:05.166Z,0.00
2022-10-22T04:49:05.246Z,0.00
2022-10-22T04:50:05.140Z,0.00
2022-10-22T04:51:05.128Z,0.00
2022-10-22T04:52:05.116Z,0.00
2022-10-22T04:53:05.125Z,0.00
2022-10-22T04:54:05.179Z,0.00
2022-10-22T04:55:05.050Z,0.00
2022-10-22T04:56:05.046Z,0.00
2022-10-22T04:57:05.038Z,0.00
2022-10-22T04:58:05.024Z,0.00
2022-10-22T04:59:05.057Z,0.00
2022-10-22T05:00:05.005Z,0.00
2022-10-22T05:01:05.039Z,0.00
2022-10-22T05:02:04.980Z,0.00
2022-10-22T05:03:05.067Z,0.00
2022-10-22T05:04:05.017Z,0.00
2022-10-22T05:05:04.970Z,0.00
2022-10-22T05:06:05.127Z,0.00
2022-10-22T05:07:04.930Z,0.00
2022-10-22T05:08:04.957Z,0.00
2022-10-22T05:09:04.957Z,0.00
2022-10-22T05:10:04.999Z,0.00
2022-10-22T05:11:04.905Z,0.00
2022-10-22T05:12:04.885Z,0.00
2022-10-22T05:13:04.922Z,0.00
2022-10-22T05:14:04.867Z,0.00
2022-10-22T05:15:04.852Z,0.00
2022-10-22T05:16:04.830Z,0.00
2022-10-22T05:17:04.840Z,0.00
2022-10-22T05:18:04.829Z,0.00
2022-10-22T05:19:04.832Z,0.00
2022-10-22T05:20:04.837Z,0.00
2022-10-22T05:21:04.793Z,0.00
2022-10-22T05:22:04.814Z,0.00
2022-10-22T05:23:04.751Z,0.00
2022-10-22T05:24:04.744Z,0.00
2022-10-22T05:25:04.853Z,0.00
2022-10-22T05:26:04.749Z,0.00
2022-10-22T05:27:04.825Z,0.00
2022-10-22T05:28:04.692Z,0.00
2022-10-22T05:29:04.683Z,0.00
2022-10-22T05:30:04.722Z,0.00
2022-10-22T05:31:04.691Z,0.00
2022-10-22T05:32:04.655Z,0.00
2022-10-22T05:33:04.723Z,0.00
2022-10-22T05:34:04.718Z,0.00
2022-10-22T05:35:04.651Z,0.00
2022-10-22T05:36:04.575Z,0.00
2022-10-22T05:37:04.660Z,0.00
2022-10-22T05:38:04.601Z,0.00
2022-10-22T05:39:04.564Z,0.00
2022-10-22T05:40:19.007Z,0.00
2022-10-22T05:41:05.619Z,0.00
2022-10-22T05:42:04.555Z,0.00
2022-10-22T05:43:04.587Z,0.00
2022-10-22T05:44:04.514Z,0.00
2022-10-22T05:45:04.513Z,0.00
2022-10-22T05:46:04.488Z,0.00
2022-10-22T05:47:04.480Z,0.00
2022-10-22T05:48:04.523Z,0.00
2022-10-22T05:49:04.534Z,0.00
2022-10-22T05:50:04.470Z,0.00
2022-10-22T05:51:04.507Z,0.00
2022-10-22T05:52:04.447Z,0.00
2022-10-22T05:53:04.537Z,0.00
2022-10-22T05:54:04.433Z,0.00
2022-10-22T05:55:04.453Z,0.00
2022-10-22T05:56:04.414Z,0.00
2022-10-22T05:57:04.393Z,0.00
2022-10-22T05:58:04.351Z,0.00
2022-10-22T05:59:04.510Z,0.00
2022-10-22T06:00:04.396Z,4.00
2022-10-22T06:01:04.358Z,4.00
2022-10-22T06:02:04.389Z,4.00
2022-10-22T06:03:04.316Z,0.00
2022-10-22T06:04:04.346Z,4.00
2022-10-22T06:05:04.354Z,4.00
2022-10-22T06:06:04.332Z,4.00
2022-10-22T06:07:04.293Z,4.00
2022-10-22T06:08:04.252Z,4.00
2022-10-22T06:09:04.288Z,4.00
2022-10-22T06:10:04.282Z,4.00
2022-10-22T06:11:04.326Z,8.00
2022-10-22T06:12:04.217Z,8.00
2022-10-22T06:13:04.279Z,8.00
2022-10-22T06:14:04.199Z,8.00
2022-10-22T06:15:04.196Z,4.00
2022-10-22T06:16:04.315Z,4.00
2022-10-22T06:17:04.203Z,4.00
2022-10-22T06:18:04.152Z,4.00
2022-10-22T06:19:04.133Z,4.00
2022-10-22T06:21:04.105Z,8.00
2022-10-22T06:22:04.135Z,8.00
2022-10-22T06:23:04.092Z,8.00
2022-10-22T06:24:04.127Z,8.00
2022-10-22T06:25:04.075Z,8.00
2022-10-22T06:26:04.078Z,8.00
2022-10-22T06:27:04.114Z,8.00
2022-10-22T06:28:04.113Z,8.00
2022-10-22T06:29:04.063Z,8.00
2022-10-22T06:30:04.006Z,8.00
2022-10-22T06:31:04.005Z,8.00
2022-10-22T06:32:03.968Z,8.00
2022-10-22T06:33:03.958Z,8.00
2022-10-22T06:34:04.081Z,8.00
2022-10-22T06:35:03.951Z,8.00
2022-10-22T06:36:06.781Z,8.00
2022-10-22T06:37:03.942Z,8.00
2022-10-22T06:38:03.972Z,8.00
2022-10-22T06:39:03.921Z,8.00
2022-10-22T06:40:03.923Z,8.00
2022-10-22T06:41:03.880Z,8.00
2022-10-22T06:42:03.861Z,8.00
2022-10-22T06:43:03.878Z,8.00
2022-10-22T06:44:04.043Z,8.00
2022-10-22T06:45:03.866Z,8.00
2022-10-22T06:46:03.871Z,12.00
2022-10-22T06:47:03.895Z,12.00
2022-10-22T06:48:03.821Z,8.00
2022-10-22T06:49:03.833Z,8.00
2022-10-22T06:50:03.784Z,4.00
2022-10-22T06:51:03.827Z,12.00
2022-10-22T06:52:03.797Z,12.00
2022-10-22T06:53:03.771Z,8.00
2022-10-22T06:54:03.734Z,12.00
2022-10-22T06:55:03.739Z,12.00
2022-10-22T06:56:03.723Z,12.00
2022-10-22T06:57:03.731Z,16.00
2022-10-22T06:58:03.734Z,16.00
2022-10-22T06:59:03.686Z,20.00
2022-10-22T07:00:03.692Z,16.00
2022-10-22T07:01:03.763Z,20.00
2022-10-22T07:02:03.650Z,20.00
2022-10-22T07:03:03.645Z,20.00
2022-10-22T07:04:03.697Z,20.00
2022-10-22T07:05:03.634Z,16.00
2022-10-22T07:06:03.607Z,20.00
2022-10-22T07:07:03.607Z,24.00
2022-10-22T07:08:03.586Z,24.00
2022-10-22T07:09:03.714Z,24.00
2022-10-22T07:10:03.647Z,28.00
2022-10-22T07:11:03.551Z,28.00
2022-10-22T07:12:03.559Z,32.00
2022-10-22T07:13:03.531Z,28.00
2022-10-22T07:14:03.537Z,24.00
2022-10-22T07:15:03.507Z,28.00
2022-10-22T07:16:03.554Z,28.00
2022-10-22T07:17:03.488Z,32.00
2022-10-22T07:18:03.469Z,28.00
2022-10-22T07:19:03.477Z,28.00
2022-10-22T07:20:03.504Z,24.00
2022-10-22T07:21:03.457Z,24.00
2022-10-22T07:22:03.478Z,28.00
2022-10-22T07:23:03.428Z,28.00
2022-10-22T07:24:03.427Z,24.00
2022-10-22T07:25:06.591Z,20.00
2022-10-22T07:26:03.385Z,20.00
2022-10-22T07:27:05.080Z,24.00
2022-10-22T07:28:03.415Z,24.00
2022-10-22T07:29:03.387Z,24.00
2022-10-22T07:30:03.371Z,20.00
2022-10-22T07:31:03.340Z,24.00
2022-10-22T07:32:03.345Z,20.00
2022-10-22T07:33:03.307Z,24.00
2022-10-22T07:34:03.334Z,20.00
2022-10-22T07:35:03.292Z,24.00
2022-10-22T07:36:03.316Z,20.00
2022-10-22T07:37:03.272Z,24.00
2022-10-22T07:38:03.253Z,24.00
2022-10-22T07:39:03.249Z,20.00
2022-10-22T07:40:04.155Z,20.00
2022-10-22T07:41:03.225Z,20.00
2022-10-22T07:42:03.214Z,20.00
2022-10-22T07:43:03.208Z,16.00
2022-10-22T07:44:03.214Z,20.00
2022-10-22T07:45:03.186Z,20.00
2022-10-22T07:46:03.328Z,20.00
2022-10-22T07:47:03.211Z,24.00
2022-10-22T07:48:03.174Z,24.00
2022-10-22T07:49:03.133Z,20.00
2022-10-22T07:50:03.143Z,20.00
2022-10-22T07:51:03.129Z,20.00
2022-10-22T07:52:03.141Z,20.00
2022-10-22T07:53:03.111Z,20.00
2022-10-22T07:54:03.090Z,20.00
2022-10-22T07:55:03.094Z,16.00
2022-10-22T07:56:03.089Z,20.00
2022-10-22T07:57:03.134Z,16.00
2022-10-22T07:58:03.080Z,20.00
2022-10-22T07:59:03.052Z,20.00
2022-10-22T08:00:03.030Z,20.00
2022-10-22T08:01:03.102Z,16.00
2022-10-22T08:02:03.077Z,20.00
2022-10-22T08:03:03.174Z,16.00
2022-10-22T08:04:02.971Z,16.00
2022-10-22T08:05:03.001Z,16.00
2022-10-22T08:06:02.944Z,16.00
2022-10-22T08:07:02.991Z,20.00
2022-10-22T08:08:03.005Z,16.00
2022-10-22T08:09:03.091Z,20.00
2022-10-22T08:10:02.949Z,20.00
2022-10-22T08:11:02.888Z,20.00
2022-10-22T08:12:02.880Z,20.00
2022-10-22T08:13:02.860Z,24.00
2022-10-22T08:14:02.919Z,24.00
2022-10-22T08:15:02.889Z,24.00
2022-10-22T08:16:02.834Z,24.00
2022-10-22T08:17:02.877Z,28.00
2022-10-22T08:18:02.812Z,24.00
2022-10-22T08:19:02.844Z,20.00
2022-10-22T08:20:02.843Z,20.00
2022-10-22T08:21:02.813Z,20.00
2022-10-22T08:22:02.854Z,24.00
2022-10-22T08:23:02.772Z,24.00
2022-10-22T08:24:02.816Z,24.00
2022-10-22T08:25:02.840Z,24.00
2022-10-22T08:26:02.755Z,24.00
2022-10-22T08:27:02.721Z,24.00
2022-10-22T08:28:02.746Z,28.00
2022-10-22T08:29:02.756Z,28.00
2022-10-22T08:30:02.739Z,28.00
2022-10-22T08:31:02.717Z,32.00
2022-10-22T08:32:03.344Z,32.00
2022-10-22T08:33:02.656Z,32.00
2022-10-22T08:34:02.683Z,28.00
2022-10-22T08:35:04.656Z,32.00
2022-10-22T08:36:02.618Z,32.00
2022-10-22T08:37:02.646Z,32.00
2022-10-22T08:38:03.258Z,32.00
2022-10-22T08:39:02.645Z,32.00
2022-10-22T08:40:02.615Z,32.00
2022-10-22T08:41:03.209Z,32.00
2022-10-22T08:42:02.571Z,36.00
2022-10-22T08:43:02.548Z,32.00
2022-10-22T08:44:03.416Z,32.00
2022-10-22T08:45:02.619Z,36.00
2022-10-22T08:46:02.575Z,36.00
2022-10-22T08:47:02.508Z,32.00
2022-10-22T08:48:02.490Z,36.00
2022-10-22T08:49:02.547Z,36.00
2022-10-22T08:50:02.488Z,36.00
2022-10-22T08:51:02.531Z,36.00
2022-10-22T08:52:02.493Z,36.00
2022-10-22T08:53:02.446Z,36.00
2022-10-22T08:54:02.485Z,36.00
2022-10-22T08:55:02.457Z,36.00
2022-10-22T08:56:02.414Z,36.00
2022-10-22T08:57:02.526Z,40.00
2022-10-22T08:58:02.415Z,40.00
2022-10-22T08:59:02.493Z,40.00
2022-10-22T09:00:02.384Z,40.00
2022-10-22T09:01:02.393Z,40.00
2022-10-22T09:02:02.375Z,44.00
2022-10-22T09:03:02.390Z,44.00
2022-10-22T09:04:02.304Z,44.00
2022-10-22T09:05:02.308Z,44.00
2022-10-22T09:06:02.380Z,48.00
2022-10-22T09:07:02.348Z,48.00
2022-10-22T09:08:02.528Z,52.00
2022-10-22T09:09:03.217Z,52.00
2022-10-22T09:10:02.256Z,52.00
2022-10-22T09:11:02.327Z,52.00
2022-10-22T09:12:03.305Z,48.00
2022-10-22T09:13:02.237Z,52.00
2022-10-22T09:14:02.249Z,52.00
2022-10-22T09:15:02.697Z,52.00
2022-10-22T09:16:02.277Z,48.00
2022-10-22T09:17:02.274Z,52.00
2022-10-22T09:18:03.013Z,52.00
2022-10-22T09:19:02.190Z,48.00
2022-10-22T09:20:02.186Z,52.00
2022-10-22T09:21:04.161Z,44.00
2022-10-22T09:22:02.877Z,40.00
2022-10-22T09:23:02.140Z,40.00
2022-10-22T09:24:02.121Z,44.00
2022-10-22T09:25:02.090Z,36.00
2022-10-22T09:26:02.160Z,40.00
2022-10-22T09:27:02.143Z,36.00
2022-10-22T09:28:02.098Z,40.00
2022-10-22T09:29:02.135Z,40.00
2022-10-22T09:30:02.052Z,36.00
2022-10-22T09:31:02.059Z,28.00
2022-10-22T09:32:02.138Z,28.00
2022-10-22T09:33:02.155Z,32.00
2022-10-22T09:34:02.059Z,28.00
2022-10-22T09:35:01.990Z,32.00
2022-10-22T09:36:02.016Z,32.00
2022-10-22T09:37:02.021Z,36.00
2022-10-22T09:38:01.954Z,32.00
2022-10-22T09:39:01.944Z,32.00
2022-10-22T09:40:01.944Z,36.00
2022-10-22T09:41:01.911Z,32.00
2022-10-22T09:42:01.994Z,32.00
2022-10-22T09:43:01.964Z,32.00
2022-10-22T09:44:01.933Z,32.00
2022-10-22T09:45:01.919Z,32.00
2022-10-22T09:46:01.952Z,32.00
2022-10-22T09:47:01.882Z,28.00
2022-10-22T09:48:02.445Z,28.00
2022-10-22T09:49:01.883Z,28.00
2022-10-22T09:50:01.823Z,28.00
2022-10-22T09:51:01.903Z,28.00
2022-10-22T09:52:01.874Z,32.00
2022-10-22T09:53:01.811Z,32.00
2022-10-22T09:54:01.799Z,28.00
2022-10-22T09:55:01.811Z,28.00
2022-10-22T09:56:01.907Z,24.00
2022-10-22T09:57:01.763Z,28.00
2022-10-22T09:58:01.800Z,32.00
2022-10-22T09:59:01.731Z,32.00
2022-10-22T10:00:01.772Z,40.00
2022-10-22T10:01:01.721Z,32.00
2022-10-22T10:02:13.541Z,40.00
2022-10-22T10:03:02.741Z,44.00
2022-10-22T10:04:04.476Z,44.00
2022-10-22T10:05:02.698Z,36.00
2022-10-22T10:06:04.993Z,36.00
2022-10-22T10:07:01.693Z,36.00
2022-10-22T10:08:01.785Z,32.00
2022-10-22T10:09:01.698Z,32.00
2022-10-22T10:10:01.652Z,44.00
2022-10-22T10:11:01.680Z,48.00
2022-10-22T10:12:01.641Z,64.00
2022-10-22T10:13:01.633Z,76.00
2022-10-22T10:14:01.610Z,80.00
2022-10-22T10:15:01.650Z,80.00
2022-10-22T10:16:01.592Z,80.00
2022-10-22T10:17:01.568Z,88.00
2022-10-22T10:18:01.519Z,84.00
2022-10-22T10:19:01.519Z,84.00
2022-10-22T10:20:03.863Z,84.00
2022-10-22T10:21:01.605Z,80.00
2022-10-22T10:22:01.479Z,80.00
2022-10-22T10:23:01.780Z,80.00
2022-10-22T10:24:01.449Z,76.00
2022-10-22T10:25:01.503Z,80.00
2022-10-22T10:26:01.487Z,76.00
2022-10-22T10:27:01.442Z,72.00
2022-10-22T10:28:04.339Z,72.00
2022-10-22T10:29:01.464Z,76.00
2022-10-22T10:30:01.403Z,80.00
2022-10-22T10:31:01.479Z,72.00
2022-10-22T10:32:01.376Z,76.00
2022-10-22T10:33:01.456Z,76.00
2022-10-22T10:34:01.420Z,76.00
2022-10-22T10:35:01.322Z,80.00
2022-10-22T10:36:01.359Z,72.00
2022-10-22T10:37:01.351Z,72.00
2022-10-22T10:38:01.434Z,72.00
2022-10-22T10:39:01.337Z,80.00
2022-10-22T10:40:01.327Z,80.00
2022-10-22T10:41:01.260Z,80.00
2022-10-22T10:42:01.312Z,76.00
2022-10-22T10:43:01.237Z,80.00
2022-10-22T10:44:01.246Z,84.00
2022-10-22T10:45:01.264Z,72.00
2022-10-22T10:46:01.295Z,84.00
2022-10-22T10:47:02.538Z,92.00
2022-10-22T10:48:01.253Z,104.00
2022-10-22T10:49:01.216Z,104.00
2022-10-22T10:50:01.332Z,104.00
2022-10-22T10:51:01.209Z,112.00
2022-10-22T10:52:01.160Z,92.00
2022-10-22T10:53:01.460Z,88.00
2022-10-22T10:54:01.141Z,100.00
2022-10-22T10:55:01.173Z,120.00
2022-10-22T10:56:01.125Z,124.00
2022-10-22T10:57:01.111Z,120.00
2022-10-22T10:58:01.448Z,132.00
2022-10-22T10:59:01.063Z,144.00
2022-10-22T11:00:01.066Z,136.00
2022-10-22T11:01:01.636Z,128.00
2022-10-22T11:02:01.145Z,124.00
2022-10-22T11:03:01.137Z,124.00
2022-10-22T11:04:01.689Z,104.00
2022-10-22T11:05:01.069Z,96.00
2022-10-22T11:06:01.102Z,92.00
2022-10-22T11:07:10.961Z,92.00
2022-10-22T11:08:02.063Z,108.00
2022-10-22T11:09:01.101Z,104.00
2022-10-22T11:10:00.996Z,96.00
2022-10-22T11:11:00.946Z,92.00
2022-10-22T11:12:00.955Z,112.00
2022-10-22T11:13:01.020Z,88.00
2022-10-22T11:14:00.894Z,84.00
2022-10-22T11:15:00.963Z,84.00
2022-10-22T11:16:00.936Z,80.00
2022-10-22T11:17:00.946Z,80.00
2022-10-22T11:18:01.288Z,84.00
2022-10-22T11:19:00.905Z,84.00
2022-10-22T11:20:00.894Z,80.00
2022-10-22T11:21:00.928Z,72.00
2022-10-22T11:22:00.845Z,76.00
2022-10-22T11:23:18.761Z,84.00
2022-10-22T11:24:01.776Z,76.00
2022-10-22T11:25:00.852Z,76.00
2022-10-22T11:26:00.831Z,72.00
2022-10-22T11:27:00.805Z,68.00
2022-10-22T11:28:06.538Z,80.00
2022-10-22T11:29:01.898Z,80.00
2022-10-22T11:30:00.831Z,76.00
2022-10-22T11:31:01.903Z,72.00
2022-10-22T11:32:00.702Z,72.00
2022-10-22T11:33:00.704Z,64.00
2022-10-22T11:34:10.024Z,68.00
2022-10-22T11:35:01.672Z,68.00
2022-10-22T11:36:00.697Z,68.00
2022-10-22T11:37:01.324Z,60.00
2022-10-22T11:38:00.631Z,56.00
2022-10-22T11:39:00.863Z,56.00
2022-10-22T11:40:01.410Z,48.00
2022-10-22T11:41:00.662Z,52.00
2022-10-22T11:42:00.652Z,52.00
2022-10-22T11:43:03.444Z,52.00
2022-10-22T11:44:00.594Z,52.00
2022-10-22T11:45:00.605Z,48.00
2022-10-22T11:46:00.605Z,52.00
2022-10-22T11:47:00.554Z,48.00
2022-10-22T11:48:00.556Z,48.00
2022-10-22T11:49:00.575Z,52.00
2022-10-22T11:50:00.502Z,56.00
2022-10-22T11:51:00.566Z,64.00
2022-10-22T11:52:04.293Z,68.00
2022-10-22T11:53:00.629Z,68.00
2022-10-22T11:54:00.571Z,72.00
2022-10-22T11:55:00.459Z,84.00
2022-10-22T11:56:00.542Z,116.00
2022-10-22T11:57:00.454Z,96.00
2022-10-22T11:58:00.423Z,100.00
2022-10-22T11:59:00.471Z,88.00
2022-10-22T12:00:00.480Z,108.00
2022-10-22T12:01:00.429Z,120.00
2022-10-22T12:02:00.385Z,132.00
2022-10-22T12:03:00.959Z,120.00
2022-10-22T12:04:00.369Z,124.00
2022-10-22T12:05:00.480Z,120.00
2022-10-22T12:06:00.902Z,96.00
2022-10-22T12:07:00.388Z,68.00
2022-10-22T12:08:00.334Z,68.00
2022-10-22T12:09:00.744Z,64.00
2022-10-22T12:10:00.359Z,64.00
2022-10-22T12:11:00.329Z,60.00
2022-10-22T12:12:00.637Z,68.00
2022-10-22T12:13:00.291Z,68.00
2022-10-22T12:14:00.263Z,56.00
2022-10-22T12:15:00.862Z,64.00
2022-10-22T12:16:00.255Z,68.00
2022-10-22T12:17:00.249Z,68.00
2022-10-22T12:18:00.896Z,68.00
2022-10-22T12:19:00.228Z,68.00
2022-10-22T12:20:02.223Z,60.00
2022-10-22T12:21:01.051Z,64.00
2022-10-22T12:22:00.223Z,76.00
2022-10-22T12:23:00.156Z,72.00
2022-10-22T12:24:00.888Z,72.00
2022-10-22T12:25:00.142Z,76.00
2022-10-22T12:26:00.182Z,84.00
2022-10-22T12:27:00.688Z,72.00
2022-10-22T12:28:00.139Z,60.00
2022-10-22T12:29:00.087Z,52.00
2022-10-22T12:30:00.724Z,44.00
2022-10-22T12:31:00.141Z,52.00
2022-10-22T12:32:00.096Z,52.00
2022-10-22T12:33:00.036Z,52.00
2022-10-22T12:34:00.028Z,52.00
2022-10-22T12:35:00.026Z,48.00
2022-10-22T12:36:00.026Z,44.00
2022-10-22T12:37:00.008Z,40.00
2022-10-22T12:37:59.988Z,40.00
2022-10-22T12:38:59.989Z,52.00
2022-10-22T12:39:59.967Z,56.00
2022-10-22T12:40:59.995Z,60.00
2022-10-22T12:41:59.967Z,68.00
2022-10-22T12:43:00.095Z,68.00
2022-10-22T12:43:59.937Z,72.00
2022-10-22T12:44:59.910Z,72.00
2022-10-22T12:45:59.915Z,68.00
2022-10-22T12:46:59.930Z,64.00
2022-10-22T12:48:00.267Z,60.00
2022-10-22T12:48:59.886Z,64.00
2022-10-22T12:49:59.889Z,64.00
2022-10-22T12:50:59.860Z,64.00
2022-10-22T12:51:59.848Z,64.00
2022-10-22T12:52:59.851Z,60.00
2022-10-22T12:53:59.882Z,60.00
2022-10-22T12:54:59.859Z,56.00
2022-10-22T12:55:59.818Z,56.00
2022-10-22T12:56:59.783Z,56.00
2022-10-22T12:57:59.774Z,56.00
2022-10-22T12:58:59.821Z,56.00
2022-10-22T13:01:00.814Z,52.00
2022-10-22T13:01:59.731Z,52.00
2022-10-22T13:02:59.710Z,56.00
2022-10-22T13:03:59.754Z,52.00
2022-10-22T13:04:59.789Z,52.00
2022-10-22T13:05:59.720Z,52.00
2022-10-22T13:06:59.680Z,56.00
2022-10-22T13:07:59.664Z,56.00